Time;durP1;ratioP1;P1;durP2;ratioP2;P2;SDS_P1;SDS_P2;PMS_P1;PMS_P2;Temp;Humidity;BMP_temperature;BMP_pressure;BME280_temperature;BME280_humidity;BME280_pressure;Samples;Min_cycle;Max_cycle;Signal;HPM_P1;HPM_P2
2023/11/30 00:00:40;;;;;;;;;41.00;35.25;;;;;11.26;100.00;99505.41;2104184;28;46525;-63
2023/11/30 00:01:40;;;;;;;;;34.50;32.75;;;;;11.26;100.00;99508.06;2106168;28;46251;-64
2023/11/30 00:02:40;;;;;;;;;41.00;36.75;;;;;11.25;100.00;99501.91;2106178;27;46647;-63
2023/11/30 00:03:41;;;;;;;;;36.75;34.75;;;;;11.27;100.00;99509.78;2114117;27;46221;-65
2023/11/30 00:04:41;;;;;;;;;37.25;34.75;;;;;11.26;100.00;99503.63;2106804;27;46685;-65
2023/11/30 00:05:41;;;;;;;;;39.25;35.75;;;;;11.26;100.00;99502.75;2105067;27;47364;-63
2023/11/30 00:06:42;;;;;;;;;41.00;36.75;;;;;11.24;100.00;99505.50;2105563;28;46633;-63
2023/11/30 00:07:42;;;;;;;;;41.50;37.00;;;;;11.25;100.00;99507.22;2105811;28;46429;-63
2023/11/30 00:08:42;;;;;;;;;40.75;35.00;;;;;11.25;100.00;99499.25;2105626;28;46247;-63
2023/11/30 00:09:42;;;;;;;;;36.50;34.50;;;;;11.26;100.00;99500.09;2106055;27;46206;-65
2023/11/30 00:10:43;;;;;;;;;34.00;31.75;;;;;11.27;100.00;99499.19;2104934;28;46915;-63
2023/11/30 00:11:43;;;;;;;;;38.00;35.00;;;;;11.26;100.00;99495.66;2105901;27;46602;-64
2023/11/30 00:12:43;;;;;;;;;39.25;33.00;;;;;11.25;100.00;99501.91;2103632;27;46298;-64
2023/11/30 00:13:44;;;;;;;;;36.75;34.25;;;;;11.25;100.00;99499.25;2097795;28;45923;-64
2023/11/30 00:14:44;;;;;;;;;39.75;34.50;;;;;11.25;100.00;99493.94;2105719;28;46633;-63
2023/11/30 00:15:44;;;;;;;;;37.00;34.00;;;;;11.23;100.00;99490.50;2104862;28;46126;-62
2023/11/30 00:16:45;;;;;;;;;30.75;30.75;;;;;11.25;100.00;99493.06;2105675;28;46876;-63
2023/11/30 00:17:45;;;;;;;;;38.75;33.75;;;;;11.23;100.00;99487.84;2105725;28;45784;-63
2023/11/30 00:18:45;;;;;;;;;42.75;37.75;;;;;11.24;100.00;99486.03;2106489;27;46265;-61
2023/11/30 00:19:46;;;;;;;;;32.00;32.00;;;;;11.24;100.00;99491.34;2105316;28;46670;-62
2023/11/30 00:20:46;;;;;;;;;37.00;34.25;;;;;11.22;100.00;99488.75;2104162;27;46172;-65
2023/11/30 00:21:46;;;;;;;;;38.50;33.75;;;;;11.19;100.00;99483.59;2106024;28;46186;-63
2023/11/30 00:22:47;;;;;;;;;36.50;33.25;;;;;11.18;100.00;99496.00;2105710;28;46641;-63
2023/11/30 00:23:47;;;;;;;;;35.25;33.25;;;;;11.18;100.00;99481.88;2105623;27;46695;-65
2023/11/30 00:24:47;;;;;;;;;37.75;34.25;;;;;11.20;100.00;99487.97;2105815;27;46429;-64
2023/11/30 00:25:48;;;;;;;;;42.50;36.50;;;;;11.19;100.00;99484.47;2105522;27;46592;-63
2023/11/30 00:26:48;;;;;;;;;35.75;34.00;;;;;11.24;100.00;99486.03;2105751;28;46538;-62
2023/11/30 00:27:48;;;;;;;;;38.25;34.00;;;;;11.24;100.00;99473.63;2106069;27;46276;-61
2023/11/30 00:28:49;;;;;;;;;39.75;33.25;;;;;11.24;100.00;99478.94;2106414;28;46032;-63
2023/11/30 00:29:49;;;;;;;;;34.50;33.00;;;;;11.24;100.00;99478.94;2105268;28;46535;-62
2023/11/30 00:30:49;;;;;;;;;35.75;33.00;;;;;11.24;100.00;99480.72;2105211;28;46430;-64
2023/11/30 00:31:49;;;;;;;;;42.00;37.50;;;;;11.24;100.00;99476.28;2105489;28;46475;-61
2023/11/30 00:32:50;;;;;;;;;32.00;30.50;;;;;11.23;100.00;99476.34;2105738;28;46422;-64
2023/11/30 00:33:50;;;;;;;;;34.75;33.25;;;;;11.23;100.00;99469.25;2104544;28;46899;-64
2023/11/30 00:34:50;;;;;;;;;33.50;32.50;;;;;11.20;100.00;99466.72;2105633;28;46498;-64
2023/11/30 00:35:51;;;;;;;;;34.75;33.50;;;;;11.20;100.00;99469.38;2106238;27;46682;-64
2023/11/30 00:36:51;;;;;;;;;36.75;32.50;;;;;11.20;100.00;99466.72;2106290;27;46429;-63
2023/11/30 00:37:51;;;;;;;;;36.50;34.25;;;;;11.20;100.00;99459.63;2105726;28;46044;-64
2023/11/30 00:38:52;;;;;;;;;42.00;36.25;;;;;11.20;100.00;99456.97;2105382;27;46291;-64
2023/11/30 00:39:52;;;;;;;;;37.25;34.75;;;;;11.19;100.00;99457.03;2105699;27;46433;-65
2023/11/30 00:40:52;;;;;;;;;34.25;31.75;;;;;11.19;100.00;99455.25;2105393;28;45300;-66
2023/11/30 00:41:53;;;;;;;;;30.00;28.50;;;;;11.18;100.00;99447.34;2105654;28;46553;-64
2023/11/30 00:42:53;;;;;;;;;36.25;33.75;;;;;11.17;100.00;99445.59;2105611;28;46001;-65
2023/11/30 00:43:53;;;;;;;;;32.50;32.00;;;;;11.15;100.00;99442.16;2112677;27;46460;-64
2023/11/30 00:44:54;;;;;;;;;39.25;34.50;;;;;11.16;100.00;99447.41;2111372;27;46402;-64
2023/11/30 00:45:54;;;;;;;;;32.00;32.00;;;;;11.15;100.00;99442.16;2106046;27;45599;-64
2023/11/30 00:46:54;;;;;;;;;43.75;36.25;;;;;11.16;100.00;99435.91;2104777;28;46462;-64
2023/11/30 00:47:55;;;;;;;;;36.25;34.00;;;;;11.16;100.00;99436.78;2104945;28;46724;-64
2023/11/30 00:48:55;;;;;;;;;36.50;32.00;;;;;11.17;100.00;99434.97;2104572;28;45548;-64
2023/11/30 00:49:55;;;;;;;;;27.25;25.25;;;;;11.17;100.00;99432.31;2105170;28;45875;-64
2023/11/30 00:50:56;;;;;;;;;33.50;32.00;;;;;11.13;100.00;99430.75;2104897;28;46690;-65
2023/11/30 00:51:56;;;;;;;;;36.50;34.00;;;;;11.13;100.00;99434.25;2096596;28;46427;-63
2023/11/30 00:52:56;;;;;;;;;32.75;32.00;;;;;11.17;100.00;99432.31;2105226;28;46206;-64
2023/11/30 00:53:57;;;;;;;;;37.25;33.50;;;;;11.17;100.00;99432.31;2105201;28;46266;-62
2023/11/30 00:54:57;;;;;;;;;39.25;33.50;;;;;11.17;100.00;99437.63;2105651;27;45785;-62
2023/11/30 00:55:57;;;;;;;;;36.75;33.00;;;;;11.17;100.00;99430.53;2105749;28;46232;-62
2023/11/30 00:56:58;;;;;;;;;40.50;34.25;;;;;11.18;100.00;99428.75;2105428;28;45906;-63
2023/11/30 00:57:58;;;;;;;;;43.25;36.75;;;;;11.18;100.00;99426.97;2104609;28;46751;-63
2023/11/30 00:58:58;;;;;;;;;33.00;32.00;;;;;11.24;100.00;99425.81;2104614;28;46898;-64
2023/11/30 01:00:04;;;;;;;;;40.00;36.25;;;;;11.27;100.00;99424.81;2105478;28;46365;-65
2023/11/30 01:01:04;;;;;;;;;38.00;34.40;;;;;11.19;100.00;99436.66;2104943;28;46475;-62
2023/11/30 01:02:04;;;;;;;;;35.50;33.50;;;;;11.18;100.00;99420.81;2105195;27;46458;-66
2023/11/30 01:03:05;;;;;;;;;39.75;34.50;;;;;11.17;100.00;99425.22;2104977;28;46820;-65
2023/11/30 01:04:05;;;;;;;;;37.75;34.00;;;;;11.16;100.00;99423.50;2105535;28;46536;-63
2023/11/30 01:05:06;;;;;;;;;37.75;35.00;;;;;11.15;100.00;99421.78;2105511;27;46205;-66
2023/11/30 01:06:07;;;;;;;;;33.00;30.80;;;;;11.16;100.00;99420.84;2105351;27;46736;-63
2023/11/30 01:07:07;;;;;;;;;36.25;33.00;;;;;11.16;100.00;99419.97;2104272;27;46532;-64
2023/11/30 01:08:07;;;;;;;;;30.00;30.00;;;;;11.15;100.00;99424.44;2105227;28;46276;-65
2023/11/30 01:09:08;;;;;;;;;36.50;32.75;;;;;11.14;100.00;99424.50;2105137;28;46327;-66
2023/11/30 01:10:08;;;;;;;;;38.50;35.00;;;;;11.11;100.00;99428.16;2105379;27;46625;-66
2023/11/30 01:11:08;;;;;;;;;36.25;33.25;;;;;11.11;100.00;99429.97;2105338;28;45478;-64
2023/11/30 01:12:10;;;;;;;;;36.50;32.00;;;;;11.10;100.00;99428.22;2104451;28;45956;-65
2023/11/30 01:13:10;;;;;;;;;37.00;32.20;;;;;11.08;100.00;99430.97;2104872;28;46565;-65
2023/11/30 01:14:11;;;;;;;;;31.75;31.75;;;;;11.07;100.00;99436.34;2105206;27;46364;-66
2023/11/30 01:15:11;;;;;;;;;35.25;32.75;;;;;11.05;100.00;99423.13;2104885;28;46361;-65
2023/11/30 01:16:11;;;;;;;;;31.25;30.00;;;;;11.05;100.00;99430.22;2105507;27;47088;-62
2023/11/30 01:17:12;;;;;;;;;37.25;32.00;;;;;11.02;100.00;99420.59;2098927;27;46893;-63
2023/11/30 01:18:12;;;;;;;;;40.00;35.50;;;;;11.02;100.00;99420.59;2104918;28;46304;-64
2023/11/30 01:19:12;;;;;;;;;34.50;32.25;;;;;10.99;100.00;99418.09;2107650;27;46389;-64
2023/11/30 01:20:13;;;;;;;;;32.50;31.25;;;;;11.00;100.00;99417.16;2107152;27;46632;-65
2023/11/30 01:21:13;;;;;;;;;34.00;30.00;;;;;11.01;100.00;99418.00;2105007;28;46377;-64
2023/11/30 01:22:13;;;;;;;;;36.50;33.00;;;;;11.01;100.00;99423.31;2096401;28;46567;-66
2023/11/30 01:23:14;;;;;;;;;35.00;32.00;;;;;11.02;100.00;99431.22;2105380;28;46315;-63
2023/11/30 01:24:14;;;;;;;;;33.25;31.75;;;;;11.01;100.00;99425.97;2104732;28;46750;-63
2023/11/30 01:25:14;;;;;;;;;36.00;34.25;;;;;11.02;100.00;99422.38;2104118;28;46491;-65
2023/11/30 01:26:15;;;;;;;;;40.50;34.75;;;;;11.02;100.00;99412.63;2104897;28;46731;-64
2023/11/30 01:27:16;;;;;;;;;33.75;32.00;;;;;11.03;100.00;99408.19;2105523;27;46536;-64
2023/11/30 01:28:16;;;;;;;;;34.50;33.00;;;;;11.02;100.00;99407.31;2105571;27;46393;-64
2023/11/30 01:29:16;;;;;;;;;34.00;31.75;;;;;11.05;100.00;99401.00;2105262;27;47215;-64
2023/11/30 01:30:17;;;;;;;;;33.00;31.75;;;;;11.06;100.00;99400.09;2104925;27;46433;-64
2023/11/30 01:31:17;;;;;;;;;33.00;32.25;;;;;11.05;100.00;99412.53;2105505;27;46501;-65
2023/11/30 01:32:17;;;;;;;;;31.00;30.25;;;;;11.05;100.00;99408.97;2104488;27;46473;-63
2023/11/30 01:33:18;;;;;;;;;34.00;32.00;;;;;11.05;100.00;99411.63;2104956;27;46292;-67
2023/11/30 01:34:18;;;;;;;;;33.00;32.00;;;;;11.04;100.00;99418.72;2104962;27;46829;-64
2023/11/30 01:35:18;;;;;;;;;35.25;33.50;;;;;11.01;100.00;99408.25;2104788;28;46388;-65
2023/11/30 01:36:19;;;;;;;;;32.50;32.00;;;;;11.01;100.00;99421.53;2104718;28;46768;-64
2023/11/30 01:37:19;;;;;;;;;38.25;33.75;;;;;11.01;100.00;99410.91;2105370;28;46747;-60
2023/11/30 01:38:19;;;;;;;;;35.25;34.25;;;;;11.02;100.00;99412.63;2105014;27;46117;-65
2023/11/30 01:39:19;;;;;;;;;33.50;31.00;;;;;11.03;100.00;99413.50;2105381;27;46534;-62
2023/11/30 01:40:20;;;;;;;;;38.75;34.25;;;;;11.01;100.00;99416.22;2104161;27;46683;-63
2023/11/30 01:41:20;;;;;;;;;37.50;34.00;;;;;11.03;100.00;99418.81;2105624;28;46478;-63
2023/11/30 01:42:21;;;;;;;;;39.00;34.75;;;;;11.03;100.00;99414.34;2105102;27;46562;-66
2023/11/30 01:43:22;;;;;;;;;39.75;36.25;;;;;11.03;100.00;99417.00;2105251;27;46830;-64
2023/11/30 01:44:23;;;;;;;;;38.25;33.75;;;;;11.04;100.00;99417.88;2104498;28;46602;-63
2023/11/30 01:45:23;;;;;;;;;36.40;32.60;;;;;11.03;100.00;99417.00;2104890;28;46774;-63
2023/11/30 01:46:23;;;;;;;;;38.75;34.00;;;;;11.01;100.00;99413.56;2105006;27;46231;-62
2023/11/30 01:47:24;;;;;;;;;38.75;34.50;;;;;11.00;100.00;99410.97;2105169;27;46850;-62
2023/11/30 01:48:24;;;;;;;;;40.75;36.50;;;;;11.00;100.00;99408.31;2105508;27;46663;-61
2023/11/30 01:49:25;;;;;;;;;40.25;35.50;;;;;10.98;100.00;99412.84;2105101;28;45528;-66
2023/11/30 01:50:25;;;;;;;;;35.00;32.00;;;;;10.98;100.00;99415.50;2105290;27;46368;-62
2023/11/30 01:51:26;;;;;;;;;37.75;34.25;;;;;10.96;100.00;99418.22;2105568;27;45773;-63
2023/11/30 01:52:28;;;;;;;;;36.80;34.40;;;;;10.92;100.00;99413.97;2105220;27;46660;-64
2023/11/30 01:53:29;;;;;;;;;36.00;34.20;;;;;10.93;100.00;99406.88;2105314;27;45897;-64
2023/11/30 01:54:29;;;;;;;;;30.50;30.50;;;;;10.92;100.00;99400.69;2105263;27;46742;-64
2023/11/30 01:55:29;;;;;;;;;33.00;32.00;;;;;10.91;100.00;99394.53;2104973;27;46239;-63
2023/11/30 01:56:32;;;;;;;;;40.25;34.00;;;;;10.98;100.00;99399.56;2105346;27;46195;-62
2023/11/30 01:57:32;;;;;;;;;34.40;33.00;;;;;11.01;100.00;99396.78;2104111;27;46497;-62
2023/11/30 01:58:33;;;;;;;;;36.00;33.25;;;;;11.02;100.00;99394.06;2105439;28;45808;-66
2023/11/30 01:59:33;;;;;;;;;39.40;32.00;;;;;11.04;100.00;99402.81;2105346;27;46543;-63
2023/11/30 02:00:36;;;;;;;;;37.75;34.25;;;;;11.02;100.00;99402.00;2105130;27;46432;-60
2023/11/30 02:01:36;;;;;;;;;42.80;35.20;;;;;11.03;100.00;99405.53;2105355;27;45825;-66
2023/11/30 02:02:38;;;;;;;;;40.50;35.00;;;;;11.02;100.00;99404.66;2105352;27;46680;-61
2023/11/30 02:03:39;;;;;;;;;38.00;34.00;;;;;11.01;100.00;99402.09;2105141;27;46971;-62
2023/11/30 02:04:42;;;;;;;;;35.00;33.60;;;;;11.02;100.00;99407.31;2105611;27;45021;-63
2023/11/30 02:05:42;;;;;;;;;34.20;33.20;;;;;11.02;100.00;99409.97;2104975;27;46343;-63
2023/11/30 02:06:44;;;;;;;;;38.00;34.00;;;;;10.97;100.00;99405.81;2105813;27;46264;-63
2023/11/30 02:07:44;;;;;;;;;41.00;37.80;;;;;10.96;100.00;99398.78;2104872;27;46414;-63
2023/11/30 02:08:47;;;;;;;;;43.00;36.25;;;;;10.97;100.00;99403.16;2105325;28;46579;-64
2023/11/30 02:09:48;;;;;;;;;45.80;38.60;;;;;10.99;100.00;99399.50;2105204;28;46500;-65
2023/11/30 02:10:48;;;;;;;;;48.00;39.00;;;;;11.02;100.00;99387.88;2104633;28;47175;-64
2023/11/30 02:11:48;;;;;;;;;48.00;41.25;;;;;11.05;100.00;99391.28;2104580;28;45572;-65
2023/11/30 02:12:49;;;;;;;;;53.75;45.25;;;;;11.07;100.00;99385.91;2104126;28;46223;-63
2023/11/30 02:13:49;;;;;;;;;56.75;46.00;;;;;11.10;100.00;99391.06;2105280;28;46847;-64
2023/11/30 02:14:50;;;;;;;;;48.00;39.00;;;;;11.14;100.00;99387.34;2104943;27;46848;-63
2023/11/30 02:15:50;;;;;;;;;20.25;18.25;;;;;11.12;100.00;99383.88;2105145;28;46708;-64
2023/11/30 02:16:50;;;;;;;;;39.00;34.00;;;;;11.15;100.00;99387.25;2105566;28;46143;-63
2023/11/30 02:17:51;;;;;;;;;39.25;35.50;;;;;11.17;100.00;99381.88;2104763;28;46804;-64
2023/11/30 02:18:51;;;;;;;;;47.25;38.00;;;;;11.26;100.00;99386.78;2105005;28;46582;-61
2023/11/30 02:19:51;;;;;;;;;40.75;35.75;;;;;11.28;100.00;99384.91;2104684;28;46798;-62
2023/11/30 02:20:51;;;;;;;;;38.00;33.25;;;;;11.27;100.00;99380.53;2104962;27;46522;-62
2023/11/30 02:21:52;;;;;;;;;56.75;46.75;;;;;11.27;100.00;99396.47;2104314;28;46114;-63
2023/11/30 02:22:52;;;;;;;;;60.75;49.25;;;;;11.27;100.00;99390.28;2104094;28;46524;-64
2023/11/30 02:23:52;;;;;;;;;57.25;47.25;;;;;11.24;100.00;99393.94;2105303;28;46629;-65
2023/11/30 02:24:53;;;;;;;;;56.00;46.75;;;;;11.22;100.00;99393.16;2104901;28;47132;-64
2023/11/30 02:25:53;;;;;;;;;66.25;53.25;;;;;11.23;100.00;99388.72;2104134;28;46596;-63
2023/11/30 02:26:53;;;;;;;;;78.25;70.25;;;;;11.24;100.00;99382.47;2104385;28;46466;-65
2023/11/30 02:27:54;;;;;;;;;97.00;93.00;;;;;11.24;100.00;99382.47;2105126;28;46236;-65
2023/11/30 02:28:54;;;;;;;;;82.50;77.75;;;;;11.22;100.00;99382.53;2104971;28;46386;-62
2023/11/30 02:29:54;;;;;;;;;103.33;98.00;;;;;11.25;100.00;99381.53;2103233;28;46306;-64
2023/11/30 02:30:55;;;;;;;;;110.33;108.00;;;;;11.26;100.00;99385.91;2099012;27;46497;-62
2023/11/30 02:31:55;;;;;;;;;134.33;125.00;;;;;11.27;100.00;99385.84;2099409;28;45882;-64
2023/11/30 02:32:55;;;;;;;;;136.33;122.67;;;;;11.27;100.00;99390.28;2104730;27;46770;-61
2023/11/30 02:33:56;;;;;;;;;117.67;113.67;;;;;11.28;100.00;99390.22;2104511;28;46303;-62
2023/11/30 02:34:56;;;;;;;;;93.33;91.33;;;;;11.28;100.00;99384.91;2086924;28;45519;-62
2023/11/30 02:35:56;;;;;;;;;108.33;101.67;;;;;11.28;100.00;99389.34;2095112;28;46750;-64
2023/11/30 02:36:56;;;;;;;;;80.25;71.25;;;;;11.26;100.00;99389.44;2095291;28;46330;-62
2023/11/30 02:37:57;;;;;;;;;98.33;92.67;;;;;11.25;100.00;99384.19;2095538;28;46508;-63
2023/11/30 02:38:57;;;;;;;;;77.50;65.75;;;;;11.22;100.00;99377.22;2095447;28;46502;-63
2023/11/30 02:39:57;;;;;;;;;91.00;90.00;;;;;11.20;100.00;99379.97;2096494;28;46789;-61
2023/11/30 02:40:58;;;;;;;;;86.25;80.50;;;;;11.19;100.00;99375.59;2096498;28;46884;-62
2023/11/30 02:41:58;;;;;;;;;109.33;107.67;;;;;11.17;100.00;99379.22;2096546;28;46811;-63
2023/11/30 02:42:58;;;;;;;;;120.33;114.00;;;;;11.16;100.00;99370.38;2095282;28;46532;-64
2023/11/30 02:43:59;;;;;;;;;119.67;113.33;;;;;11.15;100.00;99370.47;2095040;28;46673;-63
2023/11/30 02:44:59;;;;;;;;;101.00;93.33;;;;;11.16;100.00;99372.19;2095404;28;46166;-63
2023/11/30 02:45:59;;;;;;;;;92.25;85.75;;;;;11.15;100.00;99370.47;2095487;28;46492;-60
2023/11/30 02:47:00;;;;;;;;;123.67;119.00;;;;;11.16;100.00;99367.75;2095563;28;46172;-61
2023/11/30 02:48:00;;;;;;;;;124.67;116.33;;;;;11.16;100.00;99358.91;2094339;28;46165;-64
2023/11/30 02:49:00;;;;;;;;;97.00;93.00;;;;;11.15;100.00;99365.16;2103531;28;46298;-63
2023/11/30 02:50:01;;;;;;;;;105.33;100.33;;;;;11.15;100.00;99357.19;2091340;28;46347;-62
2023/11/30 02:51:01;;;;;;;;;97.67;93.00;;;;;11.14;100.00;99358.97;2086633;28;47254;-63
2023/11/30 02:52:01;;;;;;;;;129.67;116.00;;;;;11.15;100.00;99357.19;2095343;28;46303;-60
2023/11/30 02:53:02;;;;;;;;;107.00;98.33;;;;;11.13;100.00;99341.34;2095422;28;46244;-63
2023/11/30 02:54:02;;;;;;;;;111.67;103.67;;;;;11.14;100.00;99344.84;2095415;28;45807;-62
2023/11/30 02:55:03;;;;;;;;;116.67;105.00;;;;;11.13;100.00;99338.69;2095504;28;46778;-64
2023/11/30 02:56:04;;;;;;;;;80.50;67.75;;;;;11.12;100.00;99331.66;2095131;28;46738;-64
2023/11/30 02:57:04;;;;;;;;;82.00;74.00;;;;;11.12;100.00;99333.44;2070226;28;47025;-62
2023/11/30 02:58:05;;;;;;;;;82.25;76.00;;;;;11.12;100.00;99329.00;2070219;28;46581;-62
2023/11/30 02:59:05;;;;;;;;;84.50;77.75;;;;;11.12;100.00;99314.84;2095173;28;46218;-60
2023/11/30 03:00:06;;;;;;;;;86.50;78.25;;;;;11.14;100.00;99315.63;2094793;28;45836;-63
2023/11/30 03:01:06;;;;;;;;;76.25;61.75;;;;;11.14;100.00;99313.84;2095336;28;46426;-62
2023/11/30 03:02:07;;;;;;;;;79.00;69.50;;;;;11.15;100.00;99310.25;2099085;28;46490;-61
2023/11/30 03:03:07;;;;;;;;;73.25;59.50;;;;;11.16;100.00;99311.97;2099839;28;46757;-63
2023/11/30 03:04:08;;;;;;;;;55.50;45.75;;;;;11.16;100.00;99313.78;2104116;28;46264;-63
2023/11/30 03:05:08;;;;;;;;;54.75;43.50;;;;;11.16;100.00;99316.44;2095352;28;47037;-64
2023/11/30 03:06:13;;;;;;;;;41.75;36.25;;;;;11.15;100.00;99315.56;2094039;28;46629;-62
2023/11/30 03:07:13;;;;;;;;;53.60;45.00;;;;;11.14;100.00;99321.81;2105372;27;46066;-63
2023/11/30 03:08:13;;;;;;;;;54.00;43.50;;;;;11.13;100.00;99322.75;2104466;27;46280;-62
2023/11/30 03:09:14;;;;;;;;;57.75;47.00;;;;;11.10;100.00;99322.91;2105097;27;46259;-63
2023/11/30 03:10:14;;;;;;;;;57.00;46.75;;;;;11.10;100.00;99324.69;2104351;28;46299;-63
2023/11/30 03:11:14;;;;;;;;;52.25;42.25;;;;;11.10;100.00;99317.59;2104616;28;46799;-62
2023/11/30 03:12:15;;;;;;;;;60.25;49.25;;;;;11.11;100.00;99324.63;2104680;28;47794;-63
2023/11/30 03:13:15;;;;;;;;;57.75;48.00;;;;;11.10;100.00;99328.22;2104261;28;46271;-62
2023/11/30 03:14:15;;;;;;;;;63.00;52.00;;;;;11.09;100.00;99318.53;2103886;28;45273;-63
2023/11/30 03:15:18;;;;;;;;;62.75;50.75;;;;;11.09;100.00;99323.84;2104179;28;46175;-61
2023/11/30 03:16:23;;;;;;;;;61.60;51.60;;;;;11.11;100.00;99334.38;2104671;27;46834;-63
2023/11/30 03:17:23;;;;;;;;;61.60;49.40;;;;;11.09;100.00;99337.09;2104169;27;46633;-61
2023/11/30 03:18:24;;;;;;;;;60.75;50.00;;;;;11.07;100.00;99348.72;2104431;27;46196;-62
2023/11/30 03:19:24;;;;;;;;;71.50;55.00;;;;;11.08;100.00;99347.81;2113522;27;46241;-62
2023/11/30 03:20:24;;;;;;;;;60.00;50.50;;;;;11.07;100.00;99346.06;2112839;27;46055;-61
2023/11/30 03:21:25;;;;;;;;;66.75;53.75;;;;;11.07;100.00;99346.94;2102837;28;46780;-63
2023/11/30 03:22:26;;;;;;;;;52.40;42.20;;;;;11.06;100.00;99339.91;2103570;27;46929;-62
2023/11/30 03:23:26;;;;;;;;;43.25;37.50;;;;;11.07;100.00;99336.31;2105430;28;46011;-61
2023/11/30 03:24:26;;;;;;;;;49.75;42.50;;;;;11.05;100.00;99332.88;2103910;28;46409;-63
2023/11/30 03:25:27;;;;;;;;;48.50;40.50;;;;;11.02;100.00;99333.00;2104326;28;46459;-63
2023/11/30 03:26:27;;;;;;;;;50.75;41.25;;;;;10.99;100.00;99330.47;2104500;28;46544;-61
2023/11/30 03:27:27;;;;;;;;;46.75;38.50;;;;;10.97;100.00;99324.38;2104609;27;46393;-63
2023/11/30 03:28:28;;;;;;;;;57.25;46.75;;;;;10.95;100.00;99328.06;2104507;27;46230;-63
2023/11/30 03:29:28;;;;;;;;;58.75;48.25;;;;;10.93;100.00;99329.91;2104193;28;46303;-62
2023/11/30 03:30:28;;;;;;;;;49.75;40.00;;;;;10.93;100.00;99324.63;2104284;28;45606;-63
2023/11/30 03:31:28;;;;;;;;;57.25;47.50;;;;;10.93;100.00;99329.91;2104561;28;46221;-62
2023/11/30 03:32:29;;;;;;;;;58.25;49.00;;;;;10.94;100.00;99329.84;2104474;28;46077;-62
2023/11/30 03:33:29;;;;;;;;;56.00;48.00;;;;;10.96;100.00;99316.50;2094809;28;45707;-62
2023/11/30 03:34:29;;;;;;;;;59.75;48.00;;;;;10.97;100.00;99312.91;2094972;28;46464;-61
2023/11/30 03:35:30;;;;;;;;;46.50;40.75;;;;;10.97;100.00;99313.78;2104657;28;46428;-64
2023/11/30 03:36:30;;;;;;;;;51.25;43.00;;;;;10.97;100.00;99312.91;2104718;28;46768;-63
2023/11/30 03:37:30;;;;;;;;;56.50;46.50;;;;;10.96;100.00;99311.19;2104422;28;46793;-63
2023/11/30 03:38:30;;;;;;;;;43.50;37.50;;;;;10.94;100.00;99308.63;2103984;28;46022;-61
2023/11/30 03:39:31;;;;;;;;;41.00;37.00;;;;;10.94;100.00;99311.25;2102900;28;46420;-63
2023/11/30 03:40:31;;;;;;;;;47.25;39.25;;;;;10.94;100.00;99299.78;2104185;28;46740;-64
2023/11/30 03:41:31;;;;;;;;;49.50;41.00;;;;;10.94;100.00;99305.09;2104415;28;46509;-64
2023/11/30 03:42:32;;;;;;;;;49.25;42.50;;;;;10.92;100.00;99299.81;2104448;28;46047;-62
2023/11/30 03:43:32;;;;;;;;;48.25;39.00;;;;;10.91;100.00;99301.63;2104248;28;46553;-61
2023/11/30 03:44:32;;;;;;;;;44.25;38.75;;;;;10.90;100.00;99291.94;2104718;28;46338;-61
2023/11/30 03:45:33;;;;;;;;;48.75;41.50;;;;;10.93;100.00;99293.63;2104331;28;46218;-62
2023/11/30 03:46:36;;;;;;;;;48.00;37.80;;;;;10.95;100.00;99294.41;2104447;28;46440;-61
2023/11/30 03:47:36;;;;;;;;;48.40;40.60;;;;;10.95;100.00;99296.19;2104900;27;46788;-63
2023/11/30 03:48:36;;;;;;;;;48.25;41.00;;;;;10.94;100.00;99294.47;2104662;28;46351;-63
2023/11/30 03:49:37;;;;;;;;;46.75;38.75;;;;;10.93;100.00;99293.63;2104243;28;46916;-65
2023/11/30 03:50:37;;;;;;;;;50.25;41.00;;;;;10.94;100.00;99305.09;2095133;28;46616;-62
2023/11/30 03:51:37;;;;;;;;;38.00;35.00;;;;;10.94;100.00;99311.25;2095182;28;46679;-64
2023/11/30 03:52:38;;;;;;;;;45.25;38.75;;;;;10.97;100.00;99304.94;2104410;28;47087;-62
2023/11/30 03:53:38;;;;;;;;;42.50;38.25;;;;;10.98;100.00;99304.88;2104540;28;47031;-63
2023/11/30 03:54:38;;;;;;;;;44.75;37.25;;;;;10.99;100.00;99305.72;2104133;28;46354;-62
2023/11/30 03:55:39;;;;;;;;;40.50;37.25;;;;;11.00;100.00;99304.81;2102636;27;46015;-62
2023/11/30 03:56:39;;;;;;;;;41.75;37.00;;;;;11.00;100.00;99294.19;2105629;28;45060;-62
2023/11/30 03:57:39;;;;;;;;;44.25;38.50;;;;;10.98;100.00;99288.09;2105541;28;46827;-62
2023/11/30 03:58:40;;;;;;;;;43.50;35.75;;;;;10.99;100.00;99284.50;2106002;28;46419;-62
2023/11/30 03:59:40;;;;;;;;;44.25;36.00;;;;;10.98;100.00;99286.28;2105994;27;46460;-60
2023/11/30 04:00:40;;;;;;;;;41.50;35.00;;;;;10.98;100.00;99285.44;2106767;27;46645;-65
2023/11/30 04:01:41;;;;;;;;;36.25;30.50;;;;;10.97;100.00;99287.22;2105857;28;46432;-61
2023/11/30 04:02:42;;;;;;;;;42.75;35.75;;;;;10.97;100.00;99289.03;2105951;27;46476;-62
2023/11/30 04:03:42;;;;;;;;;44.00;38.20;;;;;10.96;100.00;99285.50;2107002;27;45059;-63
2023/11/30 04:04:42;;;;;;;;;42.75;38.00;;;;;10.96;100.00;99285.50;2105241;27;46627;-62
2023/11/30 04:05:43;;;;;;;;;34.50;32.25;;;;;10.97;100.00;99281.91;2097794;27;46792;-64
2023/11/30 04:06:43;;;;;;;;;36.75;33.75;;;;;10.96;100.00;99280.19;2105741;28;46380;-64
2023/11/30 04:07:43;;;;;;;;;32.50;32.25;;;;;10.96;100.00;99282.00;2105558;27;46685;-63
2023/11/30 04:08:44;;;;;;;;;43.50;36.50;;;;;10.95;100.00;99289.09;2097528;28;46827;-63
2023/11/30 04:09:45;;;;;;;;;38.50;33.50;;;;;10.95;100.00;99282.94;2104936;28;46561;-62
2023/11/30 04:10:46;;;;;;;;;35.20;32.80;;;;;10.94;100.00;99284.72;2105739;27;46647;-65
2023/11/30 04:11:46;;;;;;;;;40.75;36.00;;;;;10.95;100.00;99278.47;2096060;28;46396;-62
2023/11/30 04:12:46;;;;;;;;;41.75;36.75;;;;;10.94;100.00;99284.72;2092445;28;46115;-64
2023/11/30 04:13:47;;;;;;;;;32.00;29.75;;;;;10.91;100.00;99283.03;2097738;28;46619;-65
2023/11/30 04:14:47;;;;;;;;;34.25;32.00;;;;;10.91;100.00;99276.88;2105626;27;46581;-63
2023/11/30 04:15:48;;;;;;;;;34.50;32.00;;;;;10.88;100.00;99277.03;2106150;28;46452;-65
2023/11/30 04:16:48;;;;;;;;;34.50;32.75;;;;;10.88;100.00;99275.22;2105565;28;45821;-63
2023/11/30 04:17:48;;;;;;;;;34.25;32.50;;;;;10.88;100.00;99272.56;2105714;28;46331;-64
2023/11/30 04:18:49;;;;;;;;;38.25;35.00;;;;;10.88;100.00;99275.22;2105537;27;46507;-65
2023/11/30 04:19:49;;;;;;;;;35.25;32.25;;;;;10.88;100.00;99274.38;2113527;27;47181;-62
2023/11/30 04:20:49;;;;;;;;;31.50;29.25;;;;;10.86;100.00;99266.47;2108607;27;46340;-60
2023/11/30 04:21:50;;;;;;;;;30.50;29.00;;;;;10.87;100.00;99275.31;2105448;28;46792;-62
2023/11/30 04:22:50;;;;;;;;;32.25;29.75;;;;;10.86;100.00;99278.91;2087817;28;46497;-63
2023/11/30 04:23:50;;;;;;;;;36.50;32.75;;;;;10.88;100.00;99285.84;2087397;28;46197;-65
2023/11/30 04:24:51;;;;;;;;;29.75;27.25;;;;;10.90;100.00;99288.44;2105581;28;46454;-62
2023/11/30 04:25:51;;;;;;;;;30.75;30.75;;;;;10.93;100.00;99298.94;2105787;28;45122;-62
2023/11/30 04:26:52;;;;;;;;;34.00;31.50;;;;;10.93;100.00;99298.94;2105333;28;46890;-62
2023/11/30 04:27:53;;;;;;;;;24.60;24.60;;;;;10.95;100.00;99302.38;2105772;27;46659;-62
2023/11/30 04:28:53;;;;;;;;;37.00;33.25;;;;;10.95;100.00;99296.19;2105728;28;46617;-61
2023/11/30 04:29:53;;;;;;;;;33.50;30.75;;;;;10.97;100.00;99292.53;2105832;27;46213;-63
2023/11/30 04:30:54;;;;;;;;;25.75;24.25;;;;;10.97;100.00;99292.53;2105444;28;45856;-63
2023/11/30 04:31:55;;;;;;;;;30.00;30.00;;;;;10.98;100.00;99285.44;2104562;27;46410;-64
2023/11/30 04:32:55;;;;;;;;;31.00;27.25;;;;;10.98;100.00;99280.97;2105944;28;46375;-63
2023/11/30 04:33:56;;;;;;;;;34.75;29.00;;;;;10.98;100.00;99283.63;2105678;28;46451;-62
2023/11/30 04:34:56;;;;;;;;;30.20;28.00;;;;;10.98;100.00;99280.13;2105971;27;46497;-63